Flight Track Log - Related Links

Times and Time Zones

All times are in EDT time to prevent confusion due to time zone crossing. See the AWE479 flight status page for this flight to view local times or setup timezone preferences in your user account.

Time Position Orientation Groundspeed Altitude Reporting Facility
EDT Latitude Longitude Course Direction KTS MPH feet Rate Location/Type
Wed 07:45:36 AM 35.1933 -80.9533 52° Northeast 176 203 1,500  Level Atlanta Center
Wed 07:46:12 AM 35.1661 -80.9519 178° South 163 188 2,500 1,653 Climbing Atlanta Center
Wed 07:48:00 AM 35.1235 -81.2167 North  Level FlightAware Approximate
Wed 07:49:00 AM 35.2407 -81.2167 North  Level FlightAware Approximate
Wed 07:50:00 AM 35.3124 -81.1211 52° Northeast  Level FlightAware Approximate
Wed 07:51:28 AM 35.3310 -81.0750 178° South 344 396 11,200  Level FlightAware ADS-B
Wed 07:52:08 AM 35.3950 -81.0440 22° Northeast 378 435 11,900 884 Climbing FlightAware ADS-B
Wed 07:53:03 AM 35.4700 -81.0060 22° Northeast 380 437 12,600 442 Climbing FlightAware ADS-B
Wed 07:53:43 AM 35.5260 -80.9790 21° North 380 437 12,600  Level FlightAware ADS-B
Wed 07:54:23 AM 35.5810 -80.9510 22° Northeast 380 437 12,600 2,460 Level FlightAware ADS-B
Wed 07:55:23 AM 35.4690 -81.0070 202° Southwest 386 444 16,700 2,460 Climbing FlightAware ADS-B
Wed 07:56:03 AM 35.5260 -80.9790 22° Northeast 386 444 16,700  Level FlightAware ADS-B
Wed 07:56:43 AM 35.5820 -80.9510 22° Northeast 386 444 16,700  Level FlightAware ADS-B
Wed 07:57:23 AM 35.6380 -80.9230 22° Northeast 386 444 16,700  Level FlightAware ADS-B
Wed 07:58:13 AM 35.7090 -80.8880 22° Northeast 386 444 16,700  Level FlightAware ADS-B
Wed 07:58:53 AM 35.7650 -80.8600 22° Northeast 386 444 16,700 2,319 Level FlightAware ADS-B
Wed 08:00:56 AM 36.3067 -81.5673 314° West 455 524 23,000 2,308 Climbing FlightAware ADS-B
Wed 08:01:42 AM 36.3886 -81.6267 330° Northwest 455 524 23,200 553 Climbing FlightAware ADS-B
Wed 08:02:12 AM 36.4445 -81.6674 330° Northwest 461 531 23,700 868 Climbing FlightAware ADS-B
Wed 08:02:58 AM 36.5295 -81.7295 330° Northwest 466 536 24,300 900 Climbing FlightAware ADS-B
Wed 08:03:32 AM 36.5929 -81.7760 330° Northwest 470 541 24,900 938 Climbing FlightAware ADS-B
Wed 08:04:02 AM 36.6498 -81.8179 329° Northwest 475 547 25,300 828 Climbing FlightAware ADS-B
Wed 08:04:30 AM 36.7029 -81.8599 328° Northwest 475 547 25,700 700 Climbing FlightAware ADS-B
Wed 08:05:02 AM 36.7587 -81.9119 323° Northwest 480 552 26,000 640 Climbing FlightAware ADS-B
Wed 08:05:45 AM 36.8356 -81.9844 323° Northwest 482 555 26,500 720 Climbing FlightAware ADS-B
Wed 08:06:17 AM 36.8932 -82.0392 323° Northwest 490 564 26,900 844 Climbing FlightAware ADS-B
Wed 08:06:49 AM 36.9508 -82.0940 323° Northwest 491 565 27,400 889 Climbing FlightAware ADS-B
Wed 08:07:11 AM 36.9918 -82.1334 322° Northwest 492 566 27,700 857 Climbing FlightAware ADS-B
Wed 08:07:24 AM 37.0121 -82.1575 317° Northwest 490 564 27,900 1,000 Climbing FlightAware ADS-B
Wed 08:07:41 AM 37.0357 -82.1968 307° West 486 559 28,200 1,149 Climbing FlightAware ADS-B
Wed 08:08:11 AM 37.0581 -82.2754 290° West 486 559 28,800 1,200 Climbing FlightAware ADS-B
Wed 08:08:21 AM 37.0619 -82.2996 281° West 473 544 29,000 837 Climbing FlightAware ADS-B
Wed 08:08:54 AM 37.0762 -82.3899 281° West 474 545 29,400 923 Climbing FlightAware ADS-B
Wed 08:09:26 AM 37.0896 -82.4755 281° West 470 541 30,000 667 Climbing FlightAware ADS-B
Wed 08:09:57 AM 37.1023 -82.5578 281° West 472 543 30,100 656 Climbing FlightAware ADS-B
Wed 08:10:30 AM 37.1159 -82.6472 281° West 472 543 30,700 1,219 Climbing FlightAware ADS-B
Wed 08:11:01 AM 37.1282 -82.7276 281° West 460 529 31,400 857 Climbing FlightAware ADS-B
Wed 08:11:33 AM 37.1413 -82.8135 281° West 463 533 31,600 514 Climbing FlightAware ADS-B
Wed 08:12:11 AM 37.1561 -82.9120 281° West 459 528 32,000 343 Climbing FlightAware ADS-B
Wed 08:12:43 AM 37.1686 -82.9951 281° West 462 532 32,000  Level FlightAware ADS-B
Wed 08:13:13 AM 37.1805 -83.0744 281° West 464 534 32,000  Level FlightAware ADS-B
Wed 08:13:44 AM 37.1924 -83.1554 280° West 459 528 32,000  Level FlightAware ADS-B
Wed 08:14:16 AM 37.2050 -83.2406 281° West 458 527 32,000  Level FlightAware ADS-B
Wed 08:14:50 AM 37.2181 -83.3288 281° West 455 524 32,000  Level FlightAware ADS-B
Wed 08:15:29 AM 37.2327 -83.4296 280° West 455 524 32,000  Level FlightAware ADS-B
Wed 08:16:24 AM 37.2532 -83.5703 280° West 452 520 32,000  Level FlightAware ADS-B
Wed 08:19:51 AM 37.3301 -84.1103 280° West 461 531 32,000  Level FlightAware ADS-B
Wed 08:20:23 AM 37.3416 -84.1940 280° West 465 535 32,000  Level FlightAware ADS-B
Wed 08:20:56 AM 37.3538 -84.2821 280° West 467 537 32,000 65 Level FlightAware ADS-B
Wed 08:21:56 AM 37.3758 -84.4418 280° West 471 542 32,100 67 Climbing FlightAware ADS-B
Wed 08:22:26 AM 37.3872 -84.5247 280° West 472 543 32,100  Level FlightAware ADS-B
Wed 08:22:56 AM 37.3982 -84.6058 280° West 470 541 32,100  Level FlightAware ADS-B
Wed 08:23:27 AM 37.4092 -84.6878 280° West 469 540 32,100  Level FlightAware ADS-B
Wed 08:23:57 AM 37.4200 -84.7682 280° West 466 536 32,100 -94 Level FlightAware ADS-B
Wed 08:24:31 AM 37.4322 -84.8590 280° West 465 535 32,000 -91 Descending FlightAware ADS-B
Wed 08:25:03 AM 37.4430 -84.9390 280° West 463 533 32,000  Level FlightAware ADS-B
Wed 08:25:07 AM 37.4448 -84.9537 279° West 462 532 32,000  Level FlightAware ADS-B
Wed 08:25:39 AM 37.4559 -85.0378 279° West 459 528 32,000  Level FlightAware ADS-B
Wed 08:26:17 AM 37.4689 -85.1374 279° West 454 522 32,000  Level FlightAware ADS-B
Wed 08:26:47 AM 37.4792 -85.2165 279° West 452 520 32,000  Level FlightAware ADS-B
Wed 08:27:19 AM 37.4900 -85.2998 279° West 451 519 32,000  Level FlightAware ADS-B
Wed 08:28:00 AM 37.5036 -85.4047 279° West 450 518 32,000  Level FlightAware ADS-B
Wed 08:28:33 AM 37.5130 -85.4780 279° West 448 516 32,000  Level FlightAware ADS-B
Wed 08:28:52 AM 37.5206 -85.5378 279° West 450 518 32,000  Level FlightAware ADS-B
Wed 08:29:23 AM 37.5310 -85.6204 279° West 450 518 32,000  Level FlightAware ADS-B
Wed 08:29:53 AM 37.5390 -85.6850 279° West 451 519 32,000  Level FlightAware ADS-B
Wed 08:30:00 AM 37.5431 -85.7161 279° West 451 519 32,000  Level FlightAware ADS-B
Wed 08:30:39 AM 37.5555 -85.8153 279° West 452 520 32,000  Level FlightAware ADS-B
Wed 08:31:09 AM 37.5653 -85.8943 279° West 453 521 32,000  Level FlightAware ADS-B
Wed 08:31:45 AM 37.5769 -85.9881 279° West 454 522 32,000  Level FlightAware ADS-B
Wed 08:32:43 AM 37.5950 -86.1350 279° West 458 527 32,000  Level FlightAware ADS-B
Wed 08:33:23 AM 37.6080 -86.2430 279° West 459 528 32,000 71 Level FlightAware ADS-B
Wed 08:34:08 AM 37.6220 -86.3600 279° West 457 526 32,100 71 Climbing FlightAware ADS-B
Wed 08:34:48 AM 37.6350 -86.4650 279° West 453 521 32,100 -71 Level FlightAware ADS-B
Wed 08:35:33 AM 37.6490 -86.5850 278° West 451 519 32,000 -71 Descending FlightAware ADS-B
Wed 08:36:13 AM 37.6610 -86.6860 279° West 448 516 32,000  Level FlightAware ADS-B
Wed 08:36:53 AM 37.6730 -86.7900 278° West 444 511 32,000  Level FlightAware ADS-B
Wed 08:37:38 AM 37.6860 -86.9050 278° West 441 507 32,000 -141 Level FlightAware ADS-B
Wed 08:38:18 AM 37.6980 -87.0080 278° West 441 507 31,800 -635 Descending FlightAware ADS-B
Wed 08:39:03 AM 37.7110 -87.1230 278° West 442 509 31,100 -988 Descending FlightAware ADS-B
Wed 08:39:43 AM 37.7230 -87.2250 278° West 441 507 30,400 -776 Descending FlightAware ADS-B
Wed 08:40:28 AM 37.7350 -87.3380 278° West 434 499 30,000 -282 Descending FlightAware ADS-B
Wed 08:41:08 AM 37.7460 -87.4370 278° West 435 501 30,000  Level FlightAware ADS-B
Wed 08:41:53 AM 37.7590 -87.5500 278° West 438 504 30,000  Level FlightAware ADS-B
Wed 08:42:33 AM 37.7700 -87.6510 278° West 424 488 30,000  Level FlightAware ADS-B
Wed 08:43:13 AM 37.7800 -87.7500 277° West 420 483 30,000  Level FlightAware ADS-B
Wed 08:43:58 AM 37.7920 -87.8600 278° West 426 490 30,000  Level FlightAware ADS-B
Wed 08:44:38 AM 37.8030 -87.9600 278° West 423 487 30,000  Level FlightAware ADS-B
Wed 08:45:18 AM 37.8130 -88.0550 278° West 425 489 30,000  Level FlightAware ADS-B
Wed 08:46:03 AM 37.8240 -88.1630 277° West 427 491 30,000  Level FlightAware ADS-B
Wed 08:46:43 AM 37.8350 -88.2650 278° West 428 493 30,000  Level FlightAware ADS-B
Wed 08:47:28 AM 37.8460 -88.3780 277° West 426 490 30,000  Level FlightAware ADS-B
Wed 08:48:08 AM 37.8560 -88.4720 278° West 428 493 30,000  Level FlightAware ADS-B
Wed 08:48:48 AM 37.8660 -88.5710 277° West 429 494 30,000  Level FlightAware ADS-B
Wed 08:49:33 AM 37.8780 -88.6880 277° West 430 495 30,000  Level FlightAware ADS-B
Wed 08:50:08 AM 37.8860 -88.7710 277° West 430 495 30,000  Level FlightAware ADS-B
Wed 08:50:58 AM 37.8990 -88.9030 277° West 430 495 30,000  Level FlightAware ADS-B
Wed 08:51:53 AM 37.9110 -89.0300 277° West 429 494 30,000  Level FlightAware ADS-B
Wed 08:52:33 AM 37.9210 -89.1370 277° West 432 497 30,000  Level FlightAware ADS-B
Wed 08:53:18 AM 37.9320 -89.2450 277° West 433 498 30,000  Level FlightAware ADS-B
Wed 08:53:58 AM 37.9410 -89.3500 276° West 434 499 30,000  Level FlightAware ADS-B
Wed 08:54:48 AM 37.9520 -89.4670 277° West 431 496 30,000  Level FlightAware ADS-B
Wed 08:55:38 AM 37.9610 -89.5740 276° West 431 496 30,000  Level FlightAware ADS-B
Wed 08:56:18 AM 37.9680 -89.6590 276° West 431 496 30,000  Level FlightAware ADS-B
Wed 08:56:58 AM 37.9750 -89.7450 276° West 431 496 30,000  Level FlightAware ADS-B
Wed 08:57:38 AM 37.9820 -89.8310 276° West 431 496 30,000  Level FlightAware ADS-B
Wed 08:58:23 AM 38.0260 -90.0140 287° West 445 512 30,000  Level FlightAware ADS-B
Wed 08:59:08 AM 38.0480 -90.1190 285° West 445 512 30,000  Level FlightAware ADS-B
Wed 08:59:48 AM 38.0660 -90.2050 285° West 445 512 30,000  Level FlightAware ADS-B
Wed 09:00:28 AM 38.0840 -90.2910 285° West 445 512 30,000  Level FlightAware ADS-B
Wed 09:01:08 AM 38.1020 -90.3770 285° West 445 512 30,000  Level FlightAware ADS-B
Wed 09:01:48 AM 38.1200 -90.4630 285° West 445 512 30,000  Level FlightAware ADS-B
Wed 09:02:38 AM 38.1430 -90.5700 285° West 445 512 30,000  Level FlightAware ADS-B
Wed 09:03:18 AM 38.1610 -90.6560 285° West 445 512 30,000  Level FlightAware ADS-B
Wed 09:03:58 AM 38.1790 -90.7420 285° West 445 512 30,000  Level FlightAware ADS-B
Wed 09:04:38 AM 38.1970 -90.8280 285° West 445 512 30,000  Level FlightAware ADS-B
Wed 09:05:18 AM 38.2150 -90.9140 285° West 445 512 30,000  Level FlightAware ADS-B
Wed 09:06:08 AM 38.2380 -91.0220 285° West 445 512 30,000  Level FlightAware ADS-B
Wed 09:06:48 AM 38.2560 -91.1080 285° West 445 512 30,000  Level FlightAware ADS-B
Wed 09:07:28 AM 38.2740 -91.1940 285° West 445 512 30,000  Level FlightAware ADS-B
Wed 09:08:08 AM 38.2920 -91.2800 285° West 445 512 30,000  Level FlightAware ADS-B
Wed 09:08:51 AM 38.1183 -91.5614 285° West 415 478 30,000 346 Level Kansas City Center
Wed 09:09:52 AM 38.1200 -91.7108 271° West 420 483 30,600 590 Climbing Kansas City Center
Wed 09:15:38 AM 38.1240 -92.5780 271° West 431 496 34,000 528 Climbing FlightAware ADS-B
Wed 09:16:18 AM 38.1240 -92.6640 270° West 431 496 34,000  Level FlightAware ADS-B
Wed 09:16:58 AM 38.1240 -92.7500 270° West 431 496 34,000  Level FlightAware ADS-B
Wed 09:17:38 AM 38.1240 -92.8370 270° West 431 496 34,000  Level FlightAware ADS-B
Wed 09:18:18 AM 38.1240 -92.9230 270° West 431 496 34,000  Level FlightAware ADS-B
Wed 09:19:08 AM 38.1240 -93.0300 270° West 431 496 34,000  Level FlightAware ADS-B
Wed 09:19:48 AM 38.1240 -93.1170 270° West 431 496 34,000  Level FlightAware ADS-B
Wed 09:20:28 AM 38.1240 -93.2030 270° West 431 496 34,000  Level FlightAware ADS-B
Wed 09:21:18 AM 38.1210 -93.4240 269° West 426 490 34,000  Level FlightAware ADS-B
Wed 09:21:53 AM 38.1200 -93.5100 269° West 428 493 34,000  Level FlightAware ADS-B
Wed 09:22:33 AM 38.1190 -93.5950 269° West 428 493 34,000  Level FlightAware ADS-B
Wed 09:23:23 AM 38.1180 -93.7020 269° West 428 493 34,000 67 Level FlightAware ADS-B
Wed 09:24:03 AM 38.1180 -93.8440 270° West 437 503 34,100 75 Climbing FlightAware ADS-B
Wed 09:24:43 AM 38.1160 -93.9480 269° West 437 503 34,100  Level FlightAware ADS-B
Wed 09:25:28 AM 38.1150 -94.0610 269° West 434 499 34,100 -565 Level FlightAware ADS-B
Wed 09:26:08 AM 38.1140 -94.1630 269° West 427 491 33,300 -2,118 Descending FlightAware ADS-B
Wed 09:26:53 AM 38.1120 -94.2810 269° West 430 495 31,100 -2,259 Descending FlightAware ADS-B
Wed 09:27:33 AM 38.1110 -94.3780 269° West 418 481 30,100 -776 Descending FlightAware ADS-B
Wed 09:28:18 AM 38.1090 -94.4850 269° West 421 484 30,000 -71 Descending FlightAware ADS-B
Wed 09:28:58 AM 38.1070 -94.5860 269° West 417 480 30,000  Level FlightAware ADS-B
Wed 09:29:38 AM 38.1060 -94.6810 269° West 415 478 30,000  Level FlightAware ADS-B
Wed 09:30:23 AM 38.1040 -94.7930 269° West 412 474 30,000  Level FlightAware ADS-B
Wed 09:31:03 AM 38.1020 -94.8870 268° West 410 472 30,000  Level FlightAware ADS-B
Wed 09:31:48 AM 38.1000 -94.9950 269° West 408 470 30,000  Level FlightAware ADS-B
Wed 09:32:28 AM 38.0980 -95.0900 268° West 409 471 30,000  Level FlightAware ADS-B
Wed 09:33:13 AM 38.0950 -95.2020 268° West 409 471 30,000  Level FlightAware ADS-B
Wed 09:33:53 AM 38.0930 -95.2980 269° West 410 472 30,000  Level FlightAware ADS-B
Wed 09:34:33 AM 38.0910 -95.3940 269° West 412 474 30,000  Level FlightAware ADS-B
Wed 09:35:18 AM 38.0890 -95.5010 269° West 414 476 30,000  Level FlightAware ADS-B
Wed 09:35:58 AM 38.0860 -95.5970 268° West 415 478 30,000  Level FlightAware ADS-B
Wed 09:36:38 AM 38.0840 -95.6960 269° West 416 479 30,000  Level FlightAware ADS-B
Wed 09:37:23 AM 38.0810 -95.8090 268° West 416 479 30,000  Level FlightAware ADS-B
Wed 09:38:03 AM 38.0780 -95.9050 268° West 416 479 30,000  Level FlightAware ADS-B
Wed 09:38:48 AM 38.0750 -96.0120 268° West 416 479 30,000  Level FlightAware ADS-B
Wed 09:39:28 AM 38.0720 -96.1090 268° West 415 478 30,000  Level FlightAware ADS-B
Wed 09:40:08 AM 38.0690 -96.2050 268° West 413 475 30,000  Level FlightAware ADS-B
Wed 09:40:53 AM 38.0660 -96.3190 268° West 412 474 30,000  Level FlightAware ADS-B
Wed 09:41:33 AM 38.0620 -96.4140 267° West 411 473 30,000  Level FlightAware ADS-B
Wed 09:42:18 AM 38.0590 -96.5210 268° West 410 472 30,000  Level FlightAware ADS-B
Wed 09:42:58 AM 38.0560 -96.6180 268° West 411 473 30,000  Level FlightAware ADS-B
Wed 09:43:43 AM 38.0520 -96.7280 267° West 410 472 30,000  Level FlightAware ADS-B
Wed 09:44:23 AM 38.0490 -96.8240 268° West 411 473 30,000  Level FlightAware ADS-B
Wed 09:45:03 AM 38.0450 -96.9190 267° West 411 473 30,000  Level FlightAware ADS-B
Wed 09:45:48 AM 38.0410 -97.0260 267° West 412 474 30,000  Level FlightAware ADS-B
Wed 09:46:28 AM 38.0370 -97.1230 267° West 414 476 30,000  Level FlightAware ADS-B
Wed 09:47:13 AM 38.0330 -97.2350 267° West 414 476 30,000  Level FlightAware ADS-B
Wed 09:47:53 AM 38.0290 -97.3310 267° West 414 476 30,000  Level FlightAware ADS-B
Wed 09:48:33 AM 38.0250 -97.4270 267° West 413 475 30,000  Level FlightAware ADS-B
Wed 09:49:13 AM 38.0210 -97.5250 267° West 413 475 30,000  Level FlightAware ADS-B
Wed 09:49:58 AM 38.0170 -97.6290 267° West 414 476 30,000  Level FlightAware ADS-B
Wed 09:50:43 AM 38.0120 -97.7430 267° West 415 478 30,000  Level FlightAware ADS-B
Wed 09:51:23 AM 38.0080 -97.8400 267° West 416 479 30,000  Level FlightAware ADS-B
Wed 09:52:03 AM 38.0030 -97.9330 266° West 416 479 30,000  Level FlightAware ADS-B
Wed 09:52:43 AM 38.0000 -98.0330 268° West 416 479 30,000  Level FlightAware ADS-B
Wed 09:53:28 AM 37.9980 -98.1450 269° West 416 479 30,000  Level FlightAware ADS-B
Wed 09:54:13 AM 37.9960 -98.2530 269° West 416 479 30,000  Level FlightAware ADS-B
Wed 09:54:53 AM 37.9940 -98.3500 269° West 417 480 30,000  Level FlightAware ADS-B
Wed 09:55:33 AM 37.9920 -98.4480 269° West 418 481 30,000  Level FlightAware ADS-B
Wed 09:56:18 AM 37.9890 -98.5600 268° West 417 480 30,000  Level FlightAware ADS-B
Wed 09:56:58 AM 37.9870 -98.6560 269° West 416 479 30,000  Level FlightAware ADS-B
Wed 09:57:43 AM 37.9840 -98.7620 268° West 415 478 30,000  Level FlightAware ADS-B
Wed 09:58:23 AM 37.9820 -98.8570 268° West 413 475 30,000  Level FlightAware ADS-B
Wed 09:59:03 AM 37.9790 -98.9570 268° West 412 474 30,000  Level FlightAware ADS-B
Wed 09:59:48 AM 37.9760 -99.0670 268° West 411 473 30,000  Level FlightAware ADS-B
Wed 10:00:38 AM 37.9730 -99.1810 268° West 411 473 30,000  Level FlightAware ADS-B
Wed 10:01:18 AM 37.9710 -99.2630 268° West 411 473 30,000  Level FlightAware ADS-B
Wed 10:02:08 AM 37.9680 -99.3650 268° West 411 473 30,000  Level FlightAware ADS-B
Wed 10:02:48 AM 37.9660 -99.4470 268° West 411 473 30,000  Level FlightAware ADS-B
Wed 10:03:28 AM 37.9630 -99.5290 267° West 411 473 30,000  Level FlightAware ADS-B
Wed 10:04:08 AM 37.9610 -99.6110 268° West 411 473 30,000  Level FlightAware ADS-B
Wed 10:04:33 AM 37.9572 -99.7586 268° West 417 480 30,000 69 Level Kansas City Center
Wed 10:05:35 AM 37.9525 -99.9000 268° West 420 483 30,100  Climbing Kansas City Center
Wed 10:06:37 AM 37.9458 -100.0639 267° West 419 482 30,000 -48 Descending Kansas City Center
Wed 10:07:39 AM 37.9408 -100.2047 267° West 419 482 30,000  Level Kansas City Center
Wed 10:08:41 AM 37.9353 -100.3456 267° West 419 482 30,000  Level Kansas City Center
Wed 10:09:43 AM 37.9286 -100.5083 267° West 417 480 30,000  Level Kansas City Center
Wed 10:10:45 AM 37.9247 -100.6483 268° West 418 481 30,000  Level Kansas City Center
Wed 10:11:47 AM 37.9514 -100.8050 282° West 416 479 30,000  Level Kansas City Center
Wed 10:12:49 AM 38.0053 -100.9492 295° West 410 472 30,000  Level Kansas City Center
Wed 10:13:51 AM 38.0539 -101.0744 296° West 414 476 30,000  Level Kansas City Center
Wed 10:14:53 AM 38.1092 -101.2214 296° West 415 478 30,000  Level Kansas City Center
Wed 10:15:39 AM 38.1411 -101.3053 296° West 417 480 30,000  Level Denver Center
Wed 10:21:28 AM 38.4938 -102.0460 296° West 391 450 30,000  Level FlightAware ADS-B
Wed 10:21:59 AM 38.5232 -102.1060 302° West 393 452 30,000  Level FlightAware ADS-B
Wed 10:22:29 AM 38.5521 -102.1650 302° West 393 452 30,000  Level FlightAware ADS-B
Wed 10:23:00 AM 38.5826 -102.2270 302° West 391 450 30,000  Level FlightAware ADS-B
Wed 10:23:32 AM 38.6128 -102.2890 302° West 388 447 30,000  Level FlightAware ADS-B
Wed 10:24:02 AM 38.6417 -102.3480 302° West 388 447 30,000  Level FlightAware ADS-B
Wed 10:24:34 AM 38.6716 -102.4090 302° West 388 447 30,000  Level FlightAware ADS-B
Wed 10:25:04 AM 38.7003 -102.4680 302° West 388 447 30,000  Level FlightAware ADS-B
Wed 10:25:37 AM 38.7312 -102.5320 302° West 389 448 30,000  Level FlightAware ADS-B
Wed 10:26:07 AM 38.7596 -102.5910 302° West 389 448 30,000  Level FlightAware ADS-B
Wed 10:26:38 AM 38.7895 -102.6530 302° West 390 449 30,000  Level FlightAware ADS-B
Wed 10:27:09 AM 38.8186 -102.7130 302° West 390 449 30,000  Level FlightAware ADS-B
Wed 10:27:40 AM 38.8478 -102.7740 302° West 392 451 30,000  Level FlightAware ADS-B
Wed 10:28:10 AM 38.8772 -102.8350 302° West 392 451 30,000  Level FlightAware ADS-B
Wed 10:28:41 AM 38.9059 -102.8950 302° West 391 450 30,000 -98 Level FlightAware ADS-B
Wed 10:29:11 AM 38.9346 -102.9550 302° West 389 448 29,900 -600 Descending FlightAware ADS-B
Wed 10:29:41 AM 38.9628 -103.0140 302° West 386 444 29,400 -1,000 Descending FlightAware ADS-B
Wed 10:30:17 AM 38.9959 -103.0830 302° West 385 443 28,800 -1,000 Descending FlightAware ADS-B
Wed 10:30:47 AM 39.0239 -103.1430 301° West 381 438 28,300 -1,000 Descending FlightAware ADS-B
Wed 10:31:17 AM 39.0516 -103.2010 302° West 379 436 27,800 -1,000 Descending FlightAware ADS-B
Wed 10:31:47 AM 39.0789 -103.2580 302° West 377 434 27,300 -984 Descending FlightAware ADS-B
Wed 10:32:18 AM 39.1068 -103.3170 301° West 373 429 26,800 -968 Descending FlightAware ADS-B
Wed 10:32:49 AM 39.1339 -103.3750 301° West 373 429 26,300 -1,475 Descending FlightAware ADS-B
Wed 10:33:19 AM 39.1610 -103.4320 302° West 371 427 25,300 -2,000 Descending FlightAware ADS-B
Wed 10:33:49 AM 39.1874 -103.4880 301° West 364 419 24,300 -1,869 Descending FlightAware ADS-B
Wed 10:34:20 AM 39.2140 -103.5450 301° West 358 412 23,400 -1,869 Descending FlightAware ADS-B
Wed 10:34:50 AM 39.2400 -103.6000 301° West 353 406 22,400 -1,900 Descending FlightAware ADS-B
Wed 10:35:20 AM 39.2650 -103.6540 301° West 347 399 21,500 -1,800 Descending FlightAware ADS-B
Wed 10:35:50 AM 39.2899 -103.7070 301° West 343 395 20,600 -1,869 Descending FlightAware ADS-B
Wed 10:36:21 AM 39.3148 -103.7610 301° West 340 391 19,600 -1,967 Descending FlightAware ADS-B
Wed 10:36:51 AM 39.3392 -103.8130 301° West 336 387 18,600 -1,932 Descending FlightAware ADS-B
Wed 10:37:20 AM 39.3622 -103.8630 301° West 334 384 17,700 -1,600 Descending FlightAware ADS-B
Wed 10:37:51 AM 39.3862 -103.9140 301° West 323 372 17,000 -1,105 Descending FlightAware ADS-B
Wed 10:37:58 AM 39.3913 -103.9260 299° West 316 364 17,000  Level FlightAware ADS-B
Wed 10:38:01 AM 39.3932 -103.9320 292° West 314 361 17,000  Level FlightAware ADS-B
Wed 10:38:05 AM 39.3950 -103.9380 291° West 310 357 17,000  Level FlightAware ADS-B
Wed 10:38:11 AM 39.3970 -103.9490 283° West 307 353 17,000 -1,167 Level FlightAware ADS-B
Wed 10:38:41 AM 39.4003 -104.0040 274° West 309 356 16,300 -1,500 Descending FlightAware ADS-B
Wed 10:39:11 AM 39.4027 -104.0600 273° West 305 351 15,500 -1,574 Descending FlightAware ADS-B
Wed 10:39:42 AM 39.4051 -104.1150 273° West 302 348 14,700 -1,672 Descending FlightAware ADS-B
Wed 10:40:12 AM 39.4075 -104.1700 273° West 299 344 13,800 -1,475 Descending FlightAware ADS-B
Wed 10:40:43 AM 39.4099 -104.2240 273° West 291 335 13,200 -984 Descending FlightAware ADS-B
Wed 10:41:13 AM 39.4119 -104.2750 273° West 273 314 12,800 -1,100 Descending FlightAware ADS-B
Wed 10:41:43 AM 39.4142 -104.3250 273° West 273 314 12,100 -787 Descending FlightAware ADS-B
Wed 10:42:14 AM 39.4164 -104.3720 273° West 260 299 12,000 -492 Descending FlightAware ADS-B
Wed 10:42:44 AM 39.4184 -104.4180 273° West 255 293 11,600 -808 Descending FlightAware ADS-B
Wed 10:43:06 AM 39.4199 -104.4520 273° West 247 284 11,300 -1,019 Descending FlightAware ADS-B
Wed 10:43:37 AM 39.4223 -104.4960 274° West 243 280 10,700 -1,263 Descending FlightAware ADS-B
Wed 10:43:44 AM 39.4231 -104.5070 275° West 243 280 10,500 -1,636 Descending FlightAware ADS-B
Wed 10:43:48 AM 39.4237 -104.5120 279° West 242 278 10,400 -1,500 Descending FlightAware ADS-B
Wed 10:43:52 AM 39.4251 -104.5180 287° West 241 277 10,300 -1,714 Descending FlightAware ADS-B
Wed 10:43:55 AM 39.4266 -104.5230 291° West 240 276 10,200 -1,500 Descending FlightAware ADS-B
Wed 10:44:00 AM 39.4294 -104.5280 306° West 238 274 10,100 -600 Descending FlightAware ADS-B
Wed 10:44:15 AM 39.4395 -104.5460 306° West 239 275 10,000 -231 Descending FlightAware ADS-B
Wed 10:44:26 AM 39.4463 -104.5580 306° West 238 274 10,000  Level FlightAware ADS-B
Wed 10:44:41 AM 39.4557 -104.5750 306° West 226 260 10,000  Level FlightAware ADS-B
Wed 10:44:45 AM 39.4580 -104.5790 307° West 223 257 10,000  Level FlightAware ADS-B
Wed 10:44:49 AM 39.4609 -104.5830 313° West 220 253 10,000  Level FlightAware ADS-B
Wed 10:44:52 AM 39.4636 -104.5860 319° Northwest 217 250 10,000  Level FlightAware ADS-B
Wed 10:44:57 AM 39.4677 -104.5890 331° Northwest 214 246 10,000  Level FlightAware ADS-B
Wed 10:45:04 AM 39.4735 -104.5930 332° Northwest 213 245 10,000  Level FlightAware ADS-B
Wed 10:45:19 AM 39.4870 -104.6020 333° Northwest 213 245 10,000  Level FlightAware ADS-B
Wed 10:45:35 AM 39.5008 -104.6110 333° Northwest 212 244 10,000  Level FlightAware ADS-B
Wed 10:45:51 AM 39.5152 -104.6210 332° Northwest 212 244 10,000  Level FlightAware ADS-B
Wed 10:46:06 AM 39.5280 -104.6290 334° Northwest 201 231 10,000  Level FlightAware ADS-B
Wed 10:46:24 AM 39.5420 -104.6390 331° Northwest 191 220 10,000  Level FlightAware ADS-B
Wed 10:46:27 AM 39.5445 -104.6400 343° North 190 219 10,000  Level FlightAware ADS-B
Wed 10:46:30 AM 39.5471 -104.6410 343° North 189 217 10,000  Level FlightAware ADS-B
Wed 10:46:35 AM 39.5511 -104.6430 339° North 189 217 10,000  Level FlightAware ADS-B
Wed 10:46:39 AM 39.5546 -104.6430 360° North 188 216 10,000  Level FlightAware ADS-B
Wed 10:46:43 AM 39.5582 -104.6440 348° North 189 217 10,000  Level FlightAware ADS-B
Wed 10:46:56 AM 39.5699 -104.6440 360° North 189 217 10,000  Level FlightAware ADS-B
Wed 10:47:12 AM 39.5833 -104.6450 357° North 189 217 10,000 -240 Level FlightAware ADS-B
Wed 10:47:21 AM 39.5912 -104.6450 360° North 190 219 9,900 -720 Descending FlightAware ADS-B
Wed 10:47:37 AM 39.6056 -104.6450 360° North 191 220 9,700 -750 Descending FlightAware ADS-B
Wed 10:47:53 AM 39.6194 -104.6440 North 189 217 9,500 -938 Descending FlightAware ADS-B
Wed 10:48:09 AM 39.6340 -104.6440 360° North 189 217 9,200 -1,200 Descending FlightAware ADS-B
Wed 10:48:28 AM 39.6508 -104.6440 360° North 188 216 8,800 -1,200 Descending FlightAware ADS-B
Wed 10:48:44 AM 39.6646 -104.6440 360° North 189 217 8,500 -938 Descending FlightAware ADS-B
Wed 10:49:00 AM 39.6785 -104.6440 360° North 190 219 8,300 -938 Descending FlightAware ADS-B
Wed 10:49:16 AM 39.6927 -104.6430 North 194 223 8,000 -1,029 Descending FlightAware ADS-B
Wed 10:49:35 AM 39.7100 -104.6430 360° North 197 227 7,700 -1,000 Descending FlightAware ADS-B
Wed 10:49:52 AM 39.7250 -104.6430 360° North 195 224 7,400 -1,029 Descending FlightAware ADS-B
Wed 10:50:10 AM 39.7411 -104.6430 360° North 189 217 7,100 -1,029 Descending FlightAware ADS-B
Wed 10:50:27 AM 39.7555 -104.6430 360° North 176 203 6,800 -938 Descending FlightAware ADS-B
Wed 10:50:42 AM 39.7675 -104.6430 360° North 170 196 6,600 -800 Descending FlightAware ADS-B
Wed 10:50:57 AM 39.7792 -104.6420 North 167 192 6,400 -1,000 Descending FlightAware ADS-B
Wed 10:51:12 AM 39.7907 -104.6420 360° North 162 186 6,100 -857 Descending FlightAware ADS-B
Wed 10:51:25 AM 39.8007 -104.6420 360° North 160 184 6,000 -667 Descending FlightAware ADS-B
Wed 10:51:39 AM 39.8111 -104.6420 360° North 160 184 5,800 -1,000 Descending FlightAware ADS-B
Wed 10:51:49 AM 39.8183 -104.6420 360° North 161 185 5,600 -1,200 Descending FlightAware ADS-B

Login

Don't have an account? Register now (free) for customized features, flight alerts, and more!